sensor_id;sensor_type;location;lat;lon;timestamp;P1;durP1;ratioP1;P2;durP2;ratioP2
3959;SDS011;1994;48.640;8.894;2022-09-12T00:00:47;9.47;;;7.10;;
3959;SDS011;1994;48.640;8.894;2022-09-12T00:03:13;8.47;;;6.07;;
3959;SDS011;1994;48.640;8.894;2022-09-12T00:05:44;9.53;;;6.80;;
3959;SDS011;1994;48.640;8.894;2022-09-12T00:08:12;7.67;;;6.10;;
3959;SDS011;1994;48.640;8.894;2022-09-12T00:10:39;9.17;;;6.83;;
3959;SDS011;1994;48.640;8.894;2022-09-12T00:13:07;8.03;;;6.60;;
3959;SDS011;1994;48.640;8.894;2022-09-12T00:15:38;10.90;;;7.30;;
3959;SDS011;1994;48.640;8.894;2022-09-12T00:18:08;7.93;;;6.00;;
3959;SDS011;1994;48.640;8.894;2022-09-12T00:20:45;10.73;;;7.20;;
3959;SDS011;1994;48.640;8.894;2022-09-12T00:23:17;11.30;;;6.67;;
3959;SDS011;1994;48.640;8.894;2022-09-12T00:25:44;9.90;;;6.60;;
3959;SDS011;1994;48.640;8.894;2022-09-12T00:28:14;9.27;;;6.70;;
3959;SDS011;1994;48.640;8.894;2022-09-12T00:30:45;9.80;;;6.30;;
3959;SDS011;1994;48.640;8.894;2022-09-12T00:33:12;13.63;;;6.57;;
3959;SDS011;1994;48.640;8.894;2022-09-12T00:35:41;7.50;;;5.77;;
3959;SDS011;1994;48.640;8.894;2022-09-12T00:38:17;9.43;;;6.17;;
3959;SDS011;1994;48.640;8.894;2022-09-12T00:40:44;8.57;;;5.30;;
3959;SDS011;1994;48.640;8.894;2022-09-12T00:43:12;8.07;;;5.80;;
3959;SDS011;1994;48.640;8.894;2022-09-12T00:48:58;9.60;;;6.07;;
3959;SDS011;1994;48.640;8.894;2022-09-12T00:51:38;7.63;;;6.10;;
3959;SDS011;1994;48.640;8.894;2022-09-12T00:54:11;9.43;;;5.77;;
3959;SDS011;1994;48.640;8.894;2022-09-12T00:56:43;8.10;;;6.17;;
3959;SDS011;1994;48.640;8.894;2022-09-12T00:59:16;9.03;;;6.50;;
3959;SDS011;1994;48.640;8.894;2022-09-12T01:01:49;7.93;;;5.70;;
3959;SDS011;1994;48.640;8.894;2022-09-12T01:04:17;8.33;;;6.17;;
3959;SDS011;1994;48.640;8.894;2022-09-12T01:06:47;10.37;;;6.67;;
3959;SDS011;1994;48.640;8.894;2022-09-12T01:09:16;9.30;;;6.47;;
3959;SDS011;1994;48.640;8.894;2022-09-12T01:11:45;8.47;;;5.87;;
3959;SDS011;1994;48.640;8.894;2022-09-12T01:14:13;10.57;;;6.73;;
3959;SDS011;1994;48.640;8.894;2022-09-12T01:16:41;8.37;;;5.47;;
3959;SDS011;1994;48.640;8.894;2022-09-12T01:22:31;11.03;;;6.40;;
3959;SDS011;1994;48.640;8.894;2022-09-12T01:28:35;9.27;;;6.00;;
3959;SDS011;1994;48.640;8.894;2022-09-12T01:31:55;8.07;;;6.07;;
3959;SDS011;1994;48.640;8.894;2022-09-12T01:34:45;8.03;;;6.00;;
3959;SDS011;1994;48.640;8.894;2022-09-12T01:41:10;10.10;;;6.63;;
3959;SDS011;1994;48.640;8.894;2022-09-12T01:50:21;9.27;;;6.23;;
3959;SDS011;1994;48.640;8.894;2022-09-12T01:55:26;11.03;;;6.30;;
3959;SDS011;1994;48.640;8.894;2022-09-12T01:58:18;10.13;;;5.67;;
3959;SDS011;1994;48.640;8.894;2022-09-12T02:01:03;9.50;;;6.63;;
3959;SDS011;1994;48.640;8.894;2022-09-12T02:04:20;7.53;;;4.93;;
3959;SDS011;1994;48.640;8.894;2022-09-12T02:06:43;9.17;;;6.47;;
3959;SDS011;1994;48.640;8.894;2022-09-12T02:11:56;9.67;;;5.73;;
3959;SDS011;1994;48.640;8.894;2022-09-12T02:14:33;7.90;;;5.43;;
3959;SDS011;1994;48.640;8.894;2022-09-12T02:17:12;9.90;;;5.90;;
3959;SDS011;1994;48.640;8.894;2022-09-12T02:19:53;7.63;;;5.73;;
3959;SDS011;1994;48.640;8.894;2022-09-12T02:22:24;7.83;;;6.27;;
3959;SDS011;1994;48.640;8.894;2022-09-12T02:24:54;9.23;;;6.53;;
3959;SDS011;1994;48.640;8.894;2022-09-12T02:30:31;10.23;;;6.50;;
3959;SDS011;1994;48.640;8.894;2022-09-12T02:36:58;10.60;;;6.60;;
3959;SDS011;1994;48.640;8.894;2022-09-12T02:39:50;8.50;;;6.33;;
3959;SDS011;1994;48.640;8.894;2022-09-12T02:42:19;8.70;;;6.47;;
3959;SDS011;1994;48.640;8.894;2022-09-12T02:44:46;7.60;;;6.30;;
3959;SDS011;1994;48.640;8.894;2022-09-12T02:47:35;13.83;;;7.00;;
3959;SDS011;1994;48.640;8.894;2022-09-12T02:50:04;8.97;;;5.50;;
3959;SDS011;1994;48.640;8.894;2022-09-12T02:52:32;7.57;;;6.80;;
3959;SDS011;1994;48.640;8.894;2022-09-12T02:54:59;7.80;;;5.90;;
3959;SDS011;1994;48.640;8.894;2022-09-12T02:57:29;15.87;;;6.83;;
3959;SDS011;1994;48.640;8.894;2022-09-12T02:59:56;7.90;;;6.20;;
3959;SDS011;1994;48.640;8.894;2022-09-12T03:25:19;8.13;;;5.93;;
3959;SDS011;1994;48.640;8.894;2022-09-12T03:28:18;8.50;;;6.37;;
3959;SDS011;1994;48.640;8.894;2022-09-12T03:30:46;8.03;;;6.27;;
3959;SDS011;1994;48.640;8.894;2022-09-12T03:33:16;10.70;;;5.73;;
3959;SDS011;1994;48.640;8.894;2022-09-12T03:35:44;9.30;;;6.00;;
3959;SDS011;1994;48.640;8.894;2022-09-12T03:38:11;12.43;;;6.87;;
3959;SDS011;1994;48.640;8.894;2022-09-12T03:40:38;9.00;;;5.93;;
3959;SDS011;1994;48.640;8.894;2022-09-12T03:43:04;8.97;;;5.70;;
3959;SDS011;1994;48.640;8.894;2022-09-12T03:45:32;11.00;;;6.23;;
3959;SDS011;1994;48.640;8.894;2022-09-12T03:48:00;9.47;;;6.97;;
3959;SDS011;1994;48.640;8.894;2022-09-12T03:50:26;7.40;;;5.50;;
3959;SDS011;1994;48.640;8.894;2022-09-12T03:52:51;16.50;;;6.30;;
3959;SDS011;1994;48.640;8.894;2022-09-12T03:55:17;11.60;;;5.77;;
3959;SDS011;1994;48.640;8.894;2022-09-12T03:57:43;10.37;;;6.37;;
3959;SDS011;1994;48.640;8.894;2022-09-12T04:00:09;8.53;;;5.83;;
3959;SDS011;1994;48.640;8.894;2022-09-12T04:02:36;7.87;;;6.00;;
3959;SDS011;1994;48.640;8.894;2022-09-12T04:05:02;11.60;;;5.80;;
3959;SDS011;1994;48.640;8.894;2022-09-12T04:07:28;10.23;;;6.40;;
3959;SDS011;1994;48.640;8.894;2022-09-12T04:09:54;12.70;;;5.77;;
3959;SDS011;1994;48.640;8.894;2022-09-12T04:12:20;9.90;;;6.50;;
3959;SDS011;1994;48.640;8.894;2022-09-12T04:14:46;9.60;;;6.17;;
3959;SDS011;1994;48.640;8.894;2022-09-12T04:17:12;9.80;;;6.50;;
3959;SDS011;1994;48.640;8.894;2022-09-12T04:19:38;9.73;;;6.43;;
3959;SDS011;1994;48.640;8.894;2022-09-12T04:22:04;9.50;;;6.47;;
3959;SDS011;1994;48.640;8.894;2022-09-12T04:24:30;9.13;;;5.57;;
3959;SDS011;1994;48.640;8.894;2022-09-12T04:26:56;7.43;;;5.10;;
3959;SDS011;1994;48.640;8.894;2022-09-12T04:29:22;9.67;;;5.93;;
3959;SDS011;1994;48.640;8.894;2022-09-12T04:31:48;13.83;;;6.47;;
3959;SDS011;1994;48.640;8.894;2022-09-12T04:34:14;8.30;;;5.73;;
3959;SDS011;1994;48.640;8.894;2022-09-12T04:36:39;7.87;;;5.90;;
3959;SDS011;1994;48.640;8.894;2022-09-12T04:39:06;11.00;;;5.80;;
3959;SDS011;1994;48.640;8.894;2022-09-12T04:41:33;11.27;;;6.27;;
3959;SDS011;1994;48.640;8.894;2022-09-12T04:44:03;8.87;;;6.20;;
3959;SDS011;1994;48.640;8.894;2022-09-12T04:46:37;9.53;;;5.80;;
3959;SDS011;1994;48.640;8.894;2022-09-12T04:49:08;11.40;;;6.33;;
3959;SDS011;1994;48.640;8.894;2022-09-12T04:51:35;9.97;;;5.83;;
3959;SDS011;1994;48.640;8.894;2022-09-12T04:54:04;9.77;;;5.67;;
3959;SDS011;1994;48.640;8.894;2022-09-12T04:56:37;12.33;;;5.97;;
3959;SDS011;1994;48.640;8.894;2022-09-12T04:59:04;8.43;;;5.20;;
3959;SDS011;1994;48.640;8.894;2022-09-12T05:01:30;12.43;;;9.00;;
3959;SDS011;1994;48.640;8.894;2022-09-12T05:03:57;9.03;;;6.43;;
3959;SDS011;1994;48.640;8.894;2022-09-12T05:06:25;9.83;;;5.97;;
3959;SDS011;1994;48.640;8.894;2022-09-12T05:08:54;7.40;;;5.50;;
3959;SDS011;1994;48.640;8.894;2022-09-12T05:11:23;12.47;;;6.50;;
3959;SDS011;1994;48.640;8.894;2022-09-12T05:13:54;7.00;;;5.40;;
3959;SDS011;1994;48.640;8.894;2022-09-12T05:16:20;8.30;;;5.53;;
3959;SDS011;1994;48.640;8.894;2022-09-12T05:18:48;9.73;;;6.53;;
3959;SDS011;1994;48.640;8.894;2022-09-12T05:21:15;9.23;;;6.30;;
3959;SDS011;1994;48.640;8.894;2022-09-12T05:23:44;8.97;;;6.13;;
3959;SDS011;1994;48.640;8.894;2022-09-12T05:26:12;7.80;;;5.50;;
3959;SDS011;1994;48.640;8.894;2022-09-12T05:28:39;10.33;;;6.07;;
3959;SDS011;1994;48.640;8.894;2022-09-12T05:31:07;8.90;;;6.33;;
3959;SDS011;1994;48.640;8.894;2022-09-12T05:33:37;9.70;;;7.00;;
3959;SDS011;1994;48.640;8.894;2022-09-12T05:36:06;9.27;;;6.57;;
3959;SDS011;1994;48.640;8.894;2022-09-12T05:38:36;9.37;;;6.73;;
3959;SDS011;1994;48.640;8.894;2022-09-12T05:41:14;9.57;;;7.37;;
3959;SDS011;1994;48.640;8.894;2022-09-12T05:43:43;8.70;;;6.40;;
3959;SDS011;1994;48.640;8.894;2022-09-12T05:46:12;9.97;;;6.20;;
3959;SDS011;1994;48.640;8.894;2022-09-12T05:48:41;17.13;;;8.30;;
3959;SDS011;1994;48.640;8.894;2022-09-12T05:51:13;12.73;;;7.13;;
3959;SDS011;1994;48.640;8.894;2022-09-12T05:53:43;13.20;;;7.60;;
3959;SDS011;1994;48.640;8.894;2022-09-12T05:56:12;15.30;;;7.17;;
3959;SDS011;1994;48.640;8.894;2022-09-12T05:58:42;15.63;;;6.80;;
3959;SDS011;1994;48.640;8.894;2022-09-12T06:01:12;9.63;;;5.60;;
3959;SDS011;1994;48.640;8.894;2022-09-12T06:03:43;12.20;;;6.30;;
3959;SDS011;1994;48.640;8.894;2022-09-12T06:06:18;11.37;;;6.90;;
3959;SDS011;1994;48.640;8.894;2022-09-12T06:08:48;11.77;;;7.70;;
3959;SDS011;1994;48.640;8.894;2022-09-12T06:11:18;15.90;;;7.13;;
3959;SDS011;1994;48.640;8.894;2022-09-12T06:13:50;13.20;;;7.80;;
3959;SDS011;1994;48.640;8.894;2022-09-12T06:16:21;10.90;;;7.53;;
3959;SDS011;1994;48.640;8.894;2022-09-12T06:18:57;10.93;;;8.13;;
3959;SDS011;1994;48.640;8.894;2022-09-12T06:21:30;15.50;;;9.07;;
3959;SDS011;1994;48.640;8.894;2022-09-12T06:23:56;12.10;;;8.93;;
3959;SDS011;1994;48.640;8.894;2022-09-12T06:26:23;23.30;;;8.63;;
3959;SDS011;1994;48.640;8.894;2022-09-12T06:28:49;15.57;;;8.07;;
3959;SDS011;1994;48.640;8.894;2022-09-12T06:31:19;13.40;;;8.00;;
3959;SDS011;1994;48.640;8.894;2022-09-12T06:33:50;11.00;;;7.60;;
3959;SDS011;1994;48.640;8.894;2022-09-12T06:36:22;14.10;;;8.97;;
3959;SDS011;1994;48.640;8.894;2022-09-12T06:38:54;14.70;;;8.67;;
3959;SDS011;1994;48.640;8.894;2022-09-12T06:41:22;15.37;;;9.73;;
3959;SDS011;1994;48.640;8.894;2022-09-12T06:43:49;17.33;;;8.40;;
3959;SDS011;1994;48.640;8.894;2022-09-12T06:46:15;16.83;;;8.70;;
3959;SDS011;1994;48.640;8.894;2022-09-12T06:48:41;17.90;;;10.20;;
3959;SDS011;1994;48.640;8.894;2022-09-12T06:51:10;18.70;;;8.63;;
3959;SDS011;1994;48.640;8.894;2022-09-12T06:53:38;16.53;;;8.10;;
3959;SDS011;1994;48.640;8.894;2022-09-12T06:56:06;17.10;;;9.77;;
3959;SDS011;1994;48.640;8.894;2022-09-12T06:58:35;13.80;;;8.93;;
3959;SDS011;1994;48.640;8.894;2022-09-12T07:01:05;15.73;;;10.00;;
3959;SDS011;1994;48.640;8.894;2022-09-12T07:03:37;17.20;;;9.80;;
3959;SDS011;1994;48.640;8.894;2022-09-12T07:06:07;20.67;;;9.50;;
3959;SDS011;1994;48.640;8.894;2022-09-12T07:08:36;18.00;;;9.10;;
3959;SDS011;1994;48.640;8.894;2022-09-12T07:11:07;16.60;;;8.63;;
3959;SDS011;1994;48.640;8.894;2022-09-12T07:13:50;15.30;;;8.60;;
3959;SDS011;1994;48.640;8.894;2022-09-12T07:16:20;15.87;;;9.23;;
3959;SDS011;1994;48.640;8.894;2022-09-12T07:18:53;22.83;;;12.20;;
3959;SDS011;1994;48.640;8.894;2022-09-12T07:21:22;24.00;;;11.40;;
3959;SDS011;1994;48.640;8.894;2022-09-12T07:23:48;18.67;;;10.50;;
3959;SDS011;1994;48.640;8.894;2022-09-12T07:26:16;16.77;;;10.03;;
3959;SDS011;1994;48.640;8.894;2022-09-12T07:28:42;16.87;;;11.13;;
3959;SDS011;1994;48.640;8.894;2022-09-12T07:31:09;18.07;;;10.57;;
3959;SDS011;1994;48.640;8.894;2022-09-12T07:33:39;21.40;;;11.47;;
3959;SDS011;1994;48.640;8.894;2022-09-12T07:36:07;20.30;;;12.53;;
3959;SDS011;1994;48.640;8.894;2022-09-12T07:38:38;21.03;;;11.70;;
3959;SDS011;1994;48.640;8.894;2022-09-12T07:41:12;17.80;;;11.73;;
3959;SDS011;1994;48.640;8.894;2022-09-12T07:43:43;20.57;;;10.90;;
3959;SDS011;1994;48.640;8.894;2022-09-12T07:46:10;14.20;;;9.97;;
3959;SDS011;1994;48.640;8.894;2022-09-12T07:48:37;17.67;;;10.67;;
3959;SDS011;1994;48.640;8.894;2022-09-12T07:51:07;14.57;;;8.40;;
3959;SDS011;1994;48.640;8.894;2022-09-12T07:53:39;14.07;;;8.33;;
3959;SDS011;1994;48.640;8.894;2022-09-12T07:56:09;12.43;;;8.60;;
3959;SDS011;1994;48.640;8.894;2022-09-12T07:58:36;11.93;;;7.40;;
3959;SDS011;1994;48.640;8.894;2022-09-12T08:01:08;11.20;;;7.10;;
3959;SDS011;1994;48.640;8.894;2022-09-12T08:03:48;10.60;;;7.50;;
3959;SDS011;1994;48.640;8.894;2022-09-12T08:06:20;12.20;;;7.23;;
3959;SDS011;1994;48.640;8.894;2022-09-12T08:08:50;11.80;;;8.20;;
3959;SDS011;1994;48.640;8.894;2022-09-12T08:11:25;10.80;;;7.23;;
3959;SDS011;1994;48.640;8.894;2022-09-12T08:13:54;13.13;;;7.03;;
3959;SDS011;1994;48.640;8.894;2022-09-12T08:16:28;10.93;;;6.77;;
3959;SDS011;1994;48.640;8.894;2022-09-12T08:18:56;10.83;;;7.67;;
3959;SDS011;1994;48.640;8.894;2022-09-12T08:21:25;11.63;;;7.27;;
3959;SDS011;1994;48.640;8.894;2022-09-12T08:23:57;7.63;;;6.00;;
3959;SDS011;1994;48.640;8.894;2022-09-12T08:26:25;7.10;;;6.00;;
3959;SDS011;1994;48.640;8.894;2022-09-12T08:28:54;8.80;;;6.60;;
3959;SDS011;1994;48.640;8.894;2022-09-12T08:31:24;10.67;;;6.60;;
3959;SDS011;1994;48.640;8.894;2022-09-12T08:33:56;10.03;;;6.10;;
3959;SDS011;1994;48.640;8.894;2022-09-12T08:36:23;7.83;;;5.50;;
3959;SDS011;1994;48.640;8.894;2022-09-12T08:38:55;8.20;;;5.90;;
3959;SDS011;1994;48.640;8.894;2022-09-12T08:41:28;7.40;;;5.03;;
3959;SDS011;1994;48.640;8.894;2022-09-12T08:49:33;7.10;;;5.80;;
3959;SDS011;1994;48.640;8.894;2022-09-12T08:55:24;6.80;;;4.50;;
3959;SDS011;1994;48.640;8.894;2022-09-12T08:58:23;4.80;;;4.40;;
3959;SDS011;1994;48.640;8.894;2022-09-12T09:00:51;4.57;;;3.57;;
3959;SDS011;1994;48.640;8.894;2022-09-12T09:09:43;4.53;;;3.43;;
3959;SDS011;1994;48.640;8.894;2022-09-12T09:12:33;3.50;;;2.93;;
3959;SDS011;1994;48.640;8.894;2022-09-12T09:15:35;3.60;;;3.20;;
3959;SDS011;1994;48.640;8.894;2022-09-12T09:18:34;3.43;;;3.13;;
3959;SDS011;1994;48.640;8.894;2022-09-12T09:21:02;3.23;;;2.93;;
3959;SDS011;1994;48.640;8.894;2022-09-12T09:23:52;4.23;;;3.10;;
3959;SDS011;1994;48.640;8.894;2022-09-12T09:29:18;3.80;;;3.43;;
3959;SDS011;1994;48.640;8.894;2022-09-12T09:31:50;3.07;;;2.87;;
3959;SDS011;1994;48.640;8.894;2022-09-12T09:39:32;2.73;;;2.53;;
3959;SDS011;1994;48.640;8.894;2022-09-12T09:44:51;6.80;;;2.93;;
3959;SDS011;1994;48.640;8.894;2022-09-12T09:47:20;2.70;;;2.50;;
3959;SDS011;1994;48.640;8.894;2022-09-12T09:49:46;3.23;;;2.60;;
3959;SDS011;1994;48.640;8.894;2022-09-12T09:52:13;2.53;;;2.33;;
3959;SDS011;1994;48.640;8.894;2022-09-12T09:54:52;3.73;;;2.87;;
3959;SDS011;1994;48.640;8.894;2022-09-12T10:05:43;2.23;;;2.10;;
3959;SDS011;1994;48.640;8.894;2022-09-12T10:08:22;2.53;;;2.33;;
3959;SDS011;1994;48.640;8.894;2022-09-12T10:11:05;2.70;;;2.50;;
3959;SDS011;1994;48.640;8.894;2022-09-12T10:13:53;2.47;;;2.27;;
3959;SDS011;1994;48.640;8.894;2022-09-12T10:16:25;2.10;;;2.00;;
3959;SDS011;1994;48.640;8.894;2022-09-12T10:18:57;6.10;;;2.00;;
3959;SDS011;1994;48.640;8.894;2022-09-12T10:24:24;2.30;;;2.10;;
3959;SDS011;1994;48.640;8.894;2022-09-12T10:29:32;2.10;;;2.00;;
3959;SDS011;1994;48.640;8.894;2022-09-12T10:32:05;2.57;;;2.37;;
3959;SDS011;1994;48.640;8.894;2022-09-12T10:34:37;2.60;;;2.37;;
3959;SDS011;1994;48.640;8.894;2022-09-12T10:37:18;2.00;;;1.90;;
3959;SDS011;1994;48.640;8.894;2022-09-12T10:39:53;2.07;;;1.97;;
3959;SDS011;1994;48.640;8.894;2022-09-12T10:45:27;2.90;;;2.37;;
3959;SDS011;1994;48.640;8.894;2022-09-12T10:48:03;2.30;;;2.10;;
3959;SDS011;1994;48.640;8.894;2022-09-12T10:50:56;1.90;;;1.80;;
3959;SDS011;1994;48.640;8.894;2022-09-12T10:53:25;2.70;;;2.37;;
3959;SDS011;1994;48.640;8.894;2022-09-12T10:56:09;1.93;;;1.83;;
3959;SDS011;1994;48.640;8.894;2022-09-12T11:01:58;2.07;;;1.97;;
3959;SDS011;1994;48.640;8.894;2022-09-12T11:12:53;1.60;;;1.50;;
3959;SDS011;1994;48.640;8.894;2022-09-12T11:30:20;1.73;;;1.63;;
3959;SDS011;1994;48.640;8.894;2022-09-12T11:35:33;1.70;;;1.60;;
3959;SDS011;1994;48.640;8.894;2022-09-12T11:41:20;1.70;;;1.60;;
3959;SDS011;1994;48.640;8.894;2022-09-12T11:44:11;2.97;;;1.60;;
3959;SDS011;1994;48.640;8.894;2022-09-12T11:46:43;1.77;;;1.40;;
3959;SDS011;1994;48.640;8.894;2022-09-12T11:54:41;1.53;;;1.43;;
3959;SDS011;1994;48.640;8.894;2022-09-12T12:00:05;1.77;;;1.67;;
3959;SDS011;1994;48.640;8.894;2022-09-12T12:08:46;2.20;;;2.00;;
3959;SDS011;1994;48.640;8.894;2022-09-12T12:11:36;1.87;;;1.63;;
3959;SDS011;1994;48.640;8.894;2022-09-12T12:14:06;1.73;;;1.40;;
3959;SDS011;1994;48.640;8.894;2022-09-12T12:17:12;1.50;;;1.40;;
3959;SDS011;1994;48.640;8.894;2022-09-12T12:19:47;1.57;;;1.13;;
3959;SDS011;1994;48.640;8.894;2022-09-12T12:22:26;3.87;;;1.23;;
3959;SDS011;1994;48.640;8.894;2022-09-12T12:32:58;1.40;;;1.30;;
3959;SDS011;1994;48.640;8.894;2022-09-12T12:35:37;1.47;;;1.37;;
3959;SDS011;1994;48.640;8.894;2022-09-12T12:38:25;2.10;;;1.40;;
3959;SDS011;1994;48.640;8.894;2022-09-12T12:43:52;1.90;;;1.30;;
3959;SDS011;1994;48.640;8.894;2022-09-12T12:46:20;2.80;;;1.47;;
3959;SDS011;1994;48.640;8.894;2022-09-12T12:49:50;1.70;;;1.23;;
3959;SDS011;1994;48.640;8.894;2022-09-12T12:57:00;1.37;;;1.27;;
3959;SDS011;1994;48.640;8.894;2022-09-12T12:59:55;1.50;;;1.33;;
3959;SDS011;1994;48.640;8.894;2022-09-12T13:05:50;1.20;;;1.10;;
3959;SDS011;1994;48.640;8.894;2022-09-12T13:08:29;1.47;;;1.37;;
3959;SDS011;1994;48.640;8.894;2022-09-12T13:11:00;1.50;;;1.40;;
3959;SDS011;1994;48.640;8.894;2022-09-12T13:13:43;2.67;;;1.30;;
3959;SDS011;1994;48.640;8.894;2022-09-12T13:19:28;1.27;;;1.17;;
3959;SDS011;1994;48.640;8.894;2022-09-12T13:22:01;7.43;;;1.43;;
3959;SDS011;1994;48.640;8.894;2022-09-12T13:24:33;1.40;;;1.30;;
3959;SDS011;1994;48.640;8.894;2022-09-12T13:27:18;3.03;;;1.30;;
3959;SDS011;1994;48.640;8.894;2022-09-12T13:29:46;1.30;;;1.20;;
3959;SDS011;1994;48.640;8.894;2022-09-12T13:32:13;1.70;;;1.60;;
3959;SDS011;1994;48.640;8.894;2022-09-12T13:41:07;1.67;;;1.57;;
3959;SDS011;1994;48.640;8.894;2022-09-12T13:43:50;1.33;;;1.23;;
3959;SDS011;1994;48.640;8.894;2022-09-12T13:46:19;2.07;;;1.93;;
3959;SDS011;1994;48.640;8.894;2022-09-12T13:48:56;1.30;;;1.20;;
3959;SDS011;1994;48.640;8.894;2022-09-12T13:51:28;1.33;;;1.23;;
3959;SDS011;1994;48.640;8.894;2022-09-12T13:53:56;3.27;;;1.80;;
3959;SDS011;1994;48.640;8.894;2022-09-12T13:56:29;1.90;;;1.80;;
3959;SDS011;1994;48.640;8.894;2022-09-12T13:58:58;2.50;;;1.93;;
3959;SDS011;1994;48.640;8.894;2022-09-12T14:01:39;1.90;;;1.70;;
3959;SDS011;1994;48.640;8.894;2022-09-12T14:06:59;1.60;;;1.50;;
3959;SDS011;1994;48.640;8.894;2022-09-12T14:09:37;1.93;;;1.70;;
3959;SDS011;1994;48.640;8.894;2022-09-12T14:12:14;1.57;;;1.47;;
3959;SDS011;1994;48.640;8.894;2022-09-12T14:14:58;1.67;;;1.40;;
3959;SDS011;1994;48.640;8.894;2022-09-12T14:17:36;1.60;;;1.50;;
3959;SDS011;1994;48.640;8.894;2022-09-12T14:20:15;1.63;;;1.53;;
3959;SDS011;1994;48.640;8.894;2022-09-12T14:22:42;3.90;;;1.90;;
3959;SDS011;1994;48.640;8.894;2022-09-12T14:25:13;2.70;;;1.97;;
3959;SDS011;1994;48.640;8.894;2022-09-12T14:27:51;1.83;;;1.63;;
3959;SDS011;1994;48.640;8.894;2022-09-12T14:30:26;1.60;;;1.50;;
3959;SDS011;1994;48.640;8.894;2022-09-12T14:35:50;8.13;;;1.60;;
3959;SDS011;1994;48.640;8.894;2022-09-12T14:39:15;1.90;;;1.70;;
3959;SDS011;1994;48.640;8.894;2022-09-12T14:41:28;2.00;;;1.73;;
3959;SDS011;1994;48.640;8.894;2022-09-12T14:44:05;1.70;;;1.60;;
3959;SDS011;1994;48.640;8.894;2022-09-12T14:46:46;3.00;;;1.90;;
3959;SDS011;1994;48.640;8.894;2022-09-12T14:49:22;1.77;;;1.67;;
3959;SDS011;1994;48.640;8.894;2022-09-12T14:51:59;1.80;;;1.70;;
3959;SDS011;1994;48.640;8.894;2022-09-12T14:57:05;2.37;;;1.70;;
3959;SDS011;1994;48.640;8.894;2022-09-12T15:00:04;1.90;;;1.80;;
3959;SDS011;1994;48.640;8.894;2022-09-12T15:02:47;3.67;;;1.90;;
3959;SDS011;1994;48.640;8.894;2022-09-12T15:05:16;1.90;;;1.80;;
3959;SDS011;1994;48.640;8.894;2022-09-12T15:10:26;3.33;;;2.67;;
3959;SDS011;1994;48.640;8.894;2022-09-12T15:13:03;1.97;;;1.87;;
3959;SDS011;1994;48.640;8.894;2022-09-12T15:15:34;1.87;;;1.77;;
3959;SDS011;1994;48.640;8.894;2022-09-12T15:18:02;2.33;;;1.73;;
3959;SDS011;1994;48.640;8.894;2022-09-12T15:20:29;1.63;;;1.53;;
3959;SDS011;1994;48.640;8.894;2022-09-12T15:22:56;1.60;;;1.50;;
3959;SDS011;1994;48.640;8.894;2022-09-12T15:25:22;2.47;;;2.17;;
3959;SDS011;1994;48.640;8.894;2022-09-12T15:27:49;1.77;;;1.67;;
3959;SDS011;1994;48.640;8.894;2022-09-12T15:30:17;1.83;;;1.63;;
3959;SDS011;1994;48.640;8.894;2022-09-12T15:32:43;2.20;;;2.03;;
3959;SDS011;1994;48.640;8.894;2022-09-12T15:35:16;1.60;;;1.50;;
3959;SDS011;1994;48.640;8.894;2022-09-12T15:37:47;1.80;;;1.70;;
3959;SDS011;1994;48.640;8.894;2022-09-12T15:40:16;5.03;;;1.93;;
3959;SDS011;1994;48.640;8.894;2022-09-12T15:42:43;1.80;;;1.70;;
3959;SDS011;1994;48.640;8.894;2022-09-12T15:45:18;1.87;;;1.77;;
3959;SDS011;1994;48.640;8.894;2022-09-12T15:47:52;2.20;;;2.00;;
3959;SDS011;1994;48.640;8.894;2022-09-12T15:50:18;1.40;;;1.30;;
3959;SDS011;1994;48.640;8.894;2022-09-12T15:52:44;2.37;;;2.17;;
3959;SDS011;1994;48.640;8.894;2022-09-12T15:55:11;2.47;;;2.27;;
3959;SDS011;1994;48.640;8.894;2022-09-12T15:57:52;2.07;;;1.73;;
3959;SDS011;1994;48.640;8.894;2022-09-12T16:00:18;4.63;;;1.80;;
3959;SDS011;1994;48.640;8.894;2022-09-12T16:03:05;1.63;;;1.50;;
3959;SDS011;1994;48.640;8.894;2022-09-12T16:05:30;5.60;;;2.30;;
3959;SDS011;1994;48.640;8.894;2022-09-12T16:07:59;1.90;;;1.80;;
3959;SDS011;1994;48.640;8.894;2022-09-12T16:10:26;2.10;;;2.00;;
3959;SDS011;1994;48.640;8.894;2022-09-12T16:12:54;2.23;;;2.03;;
3959;SDS011;1994;48.640;8.894;2022-09-12T16:15:21;1.77;;;1.67;;
3959;SDS011;1994;48.640;8.894;2022-09-12T16:17:49;2.23;;;2.07;;
3959;SDS011;1994;48.640;8.894;2022-09-12T16:20:17;2.23;;;1.90;;
3959;SDS011;1994;48.640;8.894;2022-09-12T16:22:44;3.27;;;2.50;;
3959;SDS011;1994;48.640;8.894;2022-09-12T16:25:10;5.10;;;1.83;;
3959;SDS011;1994;48.640;8.894;2022-09-12T16:27:36;2.40;;;2.00;;
3959;SDS011;1994;48.640;8.894;2022-09-12T16:30:03;2.37;;;1.80;;
3959;SDS011;1994;48.640;8.894;2022-09-12T16:32:30;2.10;;;1.87;;
3959;SDS011;1994;48.640;8.894;2022-09-12T16:34:56;3.63;;;1.93;;
3959;SDS011;1994;48.640;8.894;2022-09-12T16:37:22;2.93;;;1.90;;
3959;SDS011;1994;48.640;8.894;2022-09-12T16:39:48;1.60;;;1.50;;
3959;SDS011;1994;48.640;8.894;2022-09-12T16:42:15;1.60;;;1.50;;
3959;SDS011;1994;48.640;8.894;2022-09-12T16:44:46;2.33;;;2.13;;
3959;SDS011;1994;48.640;8.894;2022-09-12T16:47:13;2.40;;;1.80;;
3959;SDS011;1994;48.640;8.894;2022-09-12T16:49:39;1.83;;;1.73;;
3959;SDS011;1994;48.640;8.894;2022-09-12T16:52:08;2.47;;;2.27;;
3959;SDS011;1994;48.640;8.894;2022-09-12T16:54:36;2.00;;;1.90;;
3959;SDS011;1994;48.640;8.894;2022-09-12T16:57:02;2.83;;;1.77;;
3959;SDS011;1994;48.640;8.894;2022-09-12T16:59:30;2.00;;;1.90;;
3959;SDS011;1994;48.640;8.894;2022-09-12T17:01:56;1.70;;;1.60;;
3959;SDS011;1994;48.640;8.894;2022-09-12T17:04:22;3.57;;;1.70;;
3959;SDS011;1994;48.640;8.894;2022-09-12T17:06:48;2.00;;;1.63;;
3959;SDS011;1994;48.640;8.894;2022-09-12T17:09:14;4.13;;;1.60;;
3959;SDS011;1994;48.640;8.894;2022-09-12T17:11:43;4.10;;;2.17;;
3959;SDS011;1994;48.640;8.894;2022-09-12T17:14:11;2.03;;;1.83;;
3959;SDS011;1994;48.640;8.894;2022-09-12T17:16:39;2.47;;;1.97;;
3959;SDS011;1994;48.640;8.894;2022-09-12T17:19:09;1.63;;;1.53;;
3959;SDS011;1994;48.640;8.894;2022-09-12T17:21:50;2.77;;;2.13;;
3959;SDS011;1994;48.640;8.894;2022-09-12T17:24:16;2.90;;;2.17;;
3959;SDS011;1994;48.640;8.894;2022-09-12T17:26:43;2.80;;;1.80;;
3959;SDS011;1994;48.640;8.894;2022-09-12T17:29:10;2.40;;;1.80;;
3959;SDS011;1994;48.640;8.894;2022-09-12T17:31:37;4.67;;;2.03;;
3959;SDS011;1994;48.640;8.894;2022-09-12T17:34:07;1.97;;;1.87;;
3959;SDS011;1994;48.640;8.894;2022-09-12T17:36:37;4.20;;;2.30;;
3959;SDS011;1994;48.640;8.894;2022-09-12T17:39:03;2.23;;;2.03;;
3959;SDS011;1994;48.640;8.894;2022-09-12T17:41:29;2.00;;;1.90;;
3959;SDS011;1994;48.640;8.894;2022-09-12T17:43:56;4.70;;;1.73;;
3959;SDS011;1994;48.640;8.894;2022-09-12T17:46:24;3.27;;;2.10;;
3959;SDS011;1994;48.640;8.894;2022-09-12T17:48:56;2.20;;;2.00;;
3959;SDS011;1994;48.640;8.894;2022-09-12T17:51:25;2.60;;;2.40;;
3959;SDS011;1994;48.640;8.894;2022-09-12T17:54:02;2.93;;;2.63;;
3959;SDS011;1994;48.640;8.894;2022-09-12T17:56:35;4.87;;;2.80;;
3959;SDS011;1994;48.640;8.894;2022-09-12T17:59:03;2.93;;;2.40;;
3959;SDS011;1994;48.640;8.894;2022-09-12T18:01:30;5.63;;;2.83;;
3959;SDS011;1994;48.640;8.894;2022-09-12T18:04:18;2.93;;;2.67;;
3959;SDS011;1994;48.640;8.894;2022-09-12T18:06:44;5.30;;;2.77;;
3959;SDS011;1994;48.640;8.894;2022-09-12T18:09:17;3.50;;;3.20;;
3959;SDS011;1994;48.640;8.894;2022-09-12T18:11:47;3.20;;;2.93;;
3959;SDS011;1994;48.640;8.894;2022-09-12T18:14:13;4.30;;;2.50;;
3959;SDS011;1994;48.640;8.894;2022-09-12T18:16:40;2.43;;;2.20;;
3959;SDS011;1994;48.640;8.894;2022-09-12T18:19:07;4.23;;;2.50;;
3959;SDS011;1994;48.640;8.894;2022-09-12T18:21:33;3.67;;;2.80;;
3959;SDS011;1994;48.640;8.894;2022-09-12T18:24:00;3.23;;;2.90;;
3959;SDS011;1994;48.640;8.894;2022-09-12T18:26:27;4.53;;;3.20;;
3959;SDS011;1994;48.640;8.894;2022-09-12T18:28:54;3.43;;;3.17;;
3959;SDS011;1994;48.640;8.894;2022-09-12T18:31:24;3.77;;;3.47;;
3959;SDS011;1994;48.640;8.894;2022-09-12T18:33:53;3.33;;;3.03;;
3959;SDS011;1994;48.640;8.894;2022-09-12T18:36:19;4.67;;;3.50;;
3959;SDS011;1994;48.640;8.894;2022-09-12T18:38:46;2.73;;;2.30;;
3959;SDS011;1994;48.640;8.894;2022-09-12T18:41:13;2.50;;;2.30;;
3959;SDS011;1994;48.640;8.894;2022-09-12T18:43:42;5.27;;;3.10;;
3959;SDS011;1994;48.640;8.894;2022-09-12T18:46:14;3.67;;;3.20;;